createdAt,value
2024-02-11T00:00:44.742Z,98193.91
2024-02-11T00:03:11.740Z,98234.81
2024-02-11T00:05:38.843Z,98187.69
2024-02-11T00:08:09.872Z,98195.06
2024-02-11T00:10:37.251Z,98063.81
2024-02-11T00:13:07.229Z,98234.59
2024-02-11T00:15:34.244Z,98088.75
2024-02-11T00:18:01.548Z,98210.75
2024-02-11T00:20:28.935Z,98225.47
2024-02-11T00:22:56.200Z,98158.31
2024-02-11T00:25:23.344Z,98219.25
2024-02-11T00:27:53.966Z,98225.09
2024-02-11T00:30:23.674Z,98141.44
2024-02-11T00:32:51.038Z,98229.00
2024-02-11T00:35:21.157Z,98211.50
2024-02-11T00:37:49.377Z,97980.53
2024-02-11T00:40:17.814Z,98212.56
2024-02-11T00:42:46.683Z,98231.09
2024-02-11T00:45:16.365Z,98223.50
2024-02-11T00:47:43.809Z,98135.97
2024-02-11T00:50:15.261Z,98169.50
2024-02-11T00:52:43.046Z,98221.88
2024-02-11T00:55:22.781Z,98198.66
2024-02-11T00:57:52.735Z,98165.22
2024-02-11T01:00:19.916Z,98225.28
2024-02-11T01:02:47.066Z,98148.06
2024-02-11T01:05:14.256Z,98219.94
2024-02-11T01:07:42.051Z,98180.59
2024-02-11T01:10:14.290Z,98153.16
2024-02-11T01:12:43.552Z,98212.72
2024-02-11T01:15:13.631Z,98216.16
2024-02-11T01:17:45.285Z,98192.19
2024-02-11T01:20:18.424Z,98204.03
2024-02-11T01:22:48.346Z,98167.88
2024-02-11T01:25:24.131Z,98202.44
2024-02-11T01:27:51.725Z,98181.50
2024-02-11T01:30:21.988Z,98198.16
2024-02-11T01:32:50.337Z,98194.56
2024-02-11T01:35:20.749Z,98196.09
2024-02-11T01:37:48.696Z,98195.88
2024-02-11T01:40:19.340Z,98181.72
2024-02-11T01:42:47.817Z,98203.28
2024-02-11T01:45:16.984Z,98207.50
2024-02-11T01:47:47.656Z,98090.59
2024-02-11T01:50:22.109Z,98195.78
2024-02-11T01:52:49.661Z,98178.72
2024-02-11T01:55:20.499Z,98195.72
2024-02-11T01:57:48.658Z,98206.56
2024-02-11T02:00:19.212Z,98218.38
2024-02-11T02:02:50.253Z,98220.69
2024-02-11T02:05:17.594Z,98169.47
2024-02-11T02:07:44.784Z,98207.47
2024-02-11T02:10:12.060Z,98202.06
2024-02-11T02:12:41.806Z,98207.41
2024-02-11T02:15:09.897Z,98174.91
2024-02-11T02:17:37.464Z,98223.38
2024-02-11T02:20:05.605Z,98198.66
2024-02-11T02:22:34.981Z,98200.38
2024-02-11T02:25:02.245Z,98194.13
2024-02-11T02:27:31.007Z,98211.22
2024-02-11T02:29:57.979Z,98184.03
2024-02-11T02:32:25.072Z,98214.91
2024-02-11T02:34:52.253Z,98177.00
2024-02-11T02:37:19.342Z,98206.81
2024-02-11T02:39:46.433Z,98205.22
2024-02-11T02:42:13.739Z,98207.00
2024-02-11T02:44:41.009Z,98219.84
2024-02-11T02:47:08.485Z,98214.03
2024-02-11T02:49:35.947Z,98227.84
2024-02-11T02:52:03.713Z,98209.56
2024-02-11T02:54:30.928Z,98230.38
2024-02-11T02:56:59.874Z,98233.75
2024-02-11T02:59:27.607Z,98212.19
2024-02-11T03:02:03.256Z,98224.56
2024-02-11T03:04:30.564Z,98203.31
2024-02-11T03:06:57.566Z,98228.66
2024-02-11T03:09:26.153Z,98206.91
2024-02-11T03:11:53.394Z,98204.59
2024-02-11T03:14:21.729Z,98211.47
2024-02-11T03:16:49.316Z,98228.97
2024-02-11T03:19:19.517Z,98207.22
2024-02-11T03:21:53.827Z,98216.53
2024-02-11T03:24:22.133Z,98227.38
2024-02-11T03:26:49.297Z,98205.34
2024-02-11T03:29:17.027Z,98187.69
2024-02-11T03:31:44.175Z,98255.91
2024-02-11T03:34:12.554Z,98196.78
2024-02-11T03:36:43.270Z,98205.56
2024-02-11T03:39:10.811Z,98202.19
2024-02-11T03:41:38.063Z,98205.78
2024-02-11T03:44:06.267Z,98217.53
2024-02-11T03:46:33.453Z,98186.75
2024-02-11T03:49:02.315Z,98243.09
2024-02-11T03:51:30.178Z,98221.31
2024-02-11T03:54:00.492Z,98160.84
2024-02-11T03:56:31.121Z,98143.88
2024-02-11T03:58:58.354Z,98216.00
2024-02-11T04:01:25.512Z,98192.78
2024-02-11T04:03:52.732Z,98224.34
2024-02-11T04:06:22.073Z,98225.94
2024-02-11T04:08:51.050Z,98215.72
2024-02-11T04:11:21.920Z,98230.06
2024-02-11T04:13:49.609Z,98225.38
2024-02-11T04:16:17.388Z,98168.44
2024-02-11T04:18:49.114Z,98117.53
2024-02-11T04:21:22.342Z,98206.19
2024-02-11T04:23:50.754Z,98017.72
2024-02-11T04:26:19.313Z,98205.97
2024-02-11T04:28:49.697Z,98189.47
2024-02-11T04:31:20.317Z,98215.44
2024-02-11T04:33:48.041Z,98208.34
2024-02-11T04:36:18.007Z,98208.97
2024-02-11T04:38:45.988Z,98083.72
2024-02-11T04:41:15.288Z,98206.75
2024-02-11T04:43:43.051Z,98132.56
2024-02-11T04:46:10.761Z,98197.28
2024-02-11T04:48:38.196Z,98214.97
2024-02-11T04:51:06.177Z,98198.94
2024-02-11T04:53:35.183Z,98149.94
2024-02-11T04:56:02.325Z,98136.97
2024-02-11T04:58:32.406Z,98170.81
2024-02-11T05:01:02.454Z,98195.81
2024-02-11T05:03:29.512Z,98197.47
2024-02-11T05:05:56.720Z,98156.31
2024-02-11T05:08:26.520Z,98193.69
2024-02-11T05:10:56.136Z,98191.69
2024-02-11T05:13:31.868Z,98206.41
2024-02-11T05:16:01.192Z,98217.53
2024-02-11T05:18:31.229Z,98208.25
2024-02-11T05:20:58.572Z,98209.78
2024-02-11T05:23:26.130Z,98210.69
2024-02-11T05:25:53.479Z,98179.09
2024-02-11T05:28:21.098Z,98175.22
2024-02-11T05:30:51.304Z,98203.56
2024-02-11T05:33:20.888Z,98200.25
2024-02-11T05:35:50.427Z,98206.31
2024-02-11T05:38:21.894Z,98213.97
2024-02-11T05:40:52.721Z,98198.72
2024-02-11T05:43:24.605Z,98214.53
2024-02-11T05:45:51.603Z,98209.03
2024-02-11T05:48:19.799Z,98197.53
2024-02-11T05:50:47.780Z,98224.44
2024-02-11T05:53:15.400Z,98099.75
2024-02-11T05:55:42.700Z,98205.06
2024-02-11T05:58:10.170Z,98190.69
2024-02-11T06:00:38.202Z,98218.63
2024-02-11T06:03:05.655Z,98197.13
2024-02-11T06:05:33.262Z,98193.47
2024-02-11T06:08:06.667Z,98193.72
2024-02-11T06:10:37.747Z,98099.88
2024-02-11T06:13:05.235Z,98218.34
2024-02-11T06:18:03.019Z,98207.56
2024-02-11T06:20:31.639Z,98217.09
2024-02-11T06:22:59.224Z,98221.50
2024-02-11T06:25:26.565Z,98219.19
2024-02-11T06:27:54.645Z,98163.63
2024-02-11T06:30:23.437Z,98222.41
2024-02-11T06:32:55.267Z,98192.72
2024-02-11T06:35:23.223Z,98218.34
2024-02-11T06:37:51.884Z,98203.41
2024-02-11T06:40:27.127Z,98210.06
2024-02-11T06:42:55.940Z,98219.44
2024-02-11T06:45:32.483Z,98253.16
2024-02-11T06:47:59.575Z,98211.63
2024-02-11T06:50:27.617Z,98022.47
2024-02-11T06:52:55.028Z,98167.50
2024-02-11T06:55:25.631Z,98238.03
2024-02-11T06:57:54.829Z,98235.47
2024-02-11T07:00:23.373Z,98228.63
2024-02-11T07:02:55.121Z,98180.97
2024-02-11T07:05:24.170Z,98203.13
2024-02-11T07:07:54.074Z,98158.88
2024-02-11T07:10:26.296Z,98230.03
2024-02-11T07:12:53.560Z,98236.88
2024-02-11T07:15:23.103Z,98174.16
2024-02-11T07:17:55.410Z,98286.28
2024-02-11T07:20:25.874Z,98111.91
2024-02-11T07:22:53.242Z,98232.50
2024-02-11T07:25:22.753Z,98223.59
2024-02-11T07:27:49.734Z,98223.19
2024-02-11T07:30:22.167Z,98238.09
2024-02-11T07:32:52.436Z,98232.44
2024-02-11T07:35:24.355Z,98162.69
2024-02-11T07:37:52.776Z,98218.28
2024-02-11T07:40:19.699Z,98231.06
2024-02-11T07:42:47.521Z,98207.00
2024-02-11T07:45:17.047Z,98080.34
2024-02-11T07:47:47.609Z,98220.25
2024-02-11T07:50:19.169Z,98220.44
2024-02-11T07:52:49.177Z,98236.97
2024-02-11T07:55:19.165Z,98207.97
2024-02-11T07:57:50.540Z,98241.88
2024-02-11T08:00:21.457Z,98221.97
2024-02-11T08:02:48.828Z,98209.91
2024-02-11T08:05:16.207Z,98225.06
2024-02-11T08:07:44.600Z,98215.66
2024-02-11T08:10:14.052Z,98248.91
2024-02-11T08:12:41.618Z,98204.38
2024-02-11T08:15:13.863Z,98177.16
2024-02-11T08:17:44.136Z,98218.44
2024-02-11T08:20:15.372Z,98238.88
2024-02-11T08:22:45.301Z,98233.78
2024-02-11T08:25:13.260Z,98245.16
2024-02-11T08:27:41.354Z,98181.50
2024-02-11T08:30:12.248Z,98241.78
2024-02-11T08:32:44.760Z,98236.72
2024-02-11T08:35:12.844Z,98242.47
2024-02-11T08:37:42.794Z,98241.63
2024-02-11T08:40:12.692Z,98207.28
2024-02-11T08:42:40.239Z,98233.63
2024-02-11T08:45:13.110Z,98237.41
2024-02-11T08:47:42.658Z,98238.38
2024-02-11T08:50:12.463Z,98153.53
2024-02-11T08:52:42.335Z,98196.22
2024-02-11T08:55:12.632Z,98187.50
2024-02-11T08:57:39.777Z,98241.25
2024-02-11T09:00:14.328Z,98241.81
2024-02-11T09:02:43.704Z,98220.25
2024-02-11T09:05:11.344Z,98235.25
2024-02-11T09:07:44.012Z,98221.59
2024-02-11T09:10:16.544Z,98165.56
2024-02-11T09:12:43.722Z,98253.31
2024-02-11T09:15:18.326Z,98265.91
2024-02-11T09:17:48.725Z,98250.81
2024-02-11T09:20:22.940Z,98251.13
2024-02-11T09:22:52.862Z,98242.53
2024-02-11T09:25:20.089Z,98204.16
2024-02-11T09:27:49.977Z,98164.91
2024-02-11T09:30:18.774Z,98242.94
2024-02-11T09:32:49.899Z,98225.84
2024-02-11T09:35:23.637Z,98234.41
2024-02-11T09:37:52.662Z,98206.31
2024-02-11T09:40:20.490Z,98234.56
2024-02-11T09:42:50.890Z,98157.00
2024-02-11T09:45:18.484Z,98226.16
2024-02-11T09:47:50.606Z,98251.75
2024-02-11T09:50:24.058Z,98188.09
2024-02-11T09:52:51.857Z,98213.41
2024-02-11T09:55:23.280Z,98177.50
2024-02-11T09:57:56.247Z,98188.25
2024-02-11T10:00:25.556Z,98149.50
2024-02-11T10:02:54.832Z,98227.69
2024-02-11T10:05:25.648Z,98226.66
2024-02-11T10:07:56.471Z,98226.78
2024-02-11T10:10:23.907Z,98204.81
2024-02-11T10:12:53.015Z,98219.63
2024-02-11T10:15:21.765Z,98207.19
2024-02-11T10:17:49.076Z,98216.00
2024-02-11T10:20:18.637Z,98166.19
2024-02-11T10:22:46.438Z,98219.41
2024-02-11T10:25:17.746Z,98225.28
2024-02-11T10:27:46.131Z,98223.69
2024-02-11T10:30:14.308Z,98201.28
2024-02-11T10:32:43.337Z,98225.38
2024-02-11T10:35:14.024Z,98230.94
2024-02-11T10:37:52.211Z,98232.97
2024-02-11T10:40:28.026Z,98214.91
2024-02-11T10:42:58.002Z,98230.78
2024-02-11T10:45:28.901Z,98188.34
2024-02-11T10:47:56.216Z,98228.53
2024-02-11T10:50:23.332Z,98233.81
2024-02-11T10:52:54.548Z,98214.91
2024-02-11T10:55:27.740Z,98218.22
2024-02-11T10:57:55.417Z,98191.34
2024-02-11T11:00:23.985Z,98240.38
2024-02-11T11:02:55.026Z,98241.84
2024-02-11T11:05:23.925Z,98206.94
2024-02-11T11:07:56.153Z,98241.03
2024-02-11T11:10:30.248Z,98213.19
2024-02-11T11:13:01.184Z,98250.78
2024-02-11T11:15:33.756Z,98246.41
2024-02-11T11:18:10.083Z,98255.50
2024-02-11T11:20:38.514Z,98225.25
2024-02-11T11:23:07.918Z,98237.91
2024-02-11T11:25:38.705Z,98244.75
2024-02-11T11:28:16.280Z,98222.16
2024-02-11T11:30:44.667Z,98248.50
2024-02-11T11:33:14.937Z,98217.72
2024-02-11T11:35:48.056Z,98228.75
2024-02-11T11:38:21.061Z,98229.97
2024-02-11T11:40:52.510Z,98250.03
2024-02-11T11:43:22.342Z,98226.16
2024-02-11T11:46:00.304Z,98204.44
2024-02-11T11:48:29.282Z,98168.53
2024-02-11T11:50:58.284Z,98211.22
2024-02-11T11:53:30.457Z,98222.91
2024-02-11T11:56:02.664Z,98047.81
2024-02-11T11:58:32.467Z,98201.28
2024-02-11T12:01:05.985Z,98245.56
2024-02-11T12:03:36.600Z,98213.88
2024-02-11T12:06:03.889Z,98203.13
2024-02-11T12:08:32.214Z,98190.00
2024-02-11T12:11:10.986Z,98184.13
2024-02-11T12:13:39.368Z,98191.56
2024-02-11T12:16:17.143Z,98201.69
2024-02-11T12:18:45.571Z,98212.22
2024-02-11T12:21:14.177Z,98210.44
2024-02-11T12:23:43.412Z,98202.00
2024-02-11T12:26:11.931Z,98182.13
2024-02-11T12:28:40.817Z,98182.78
2024-02-11T12:31:15.248Z,98211.34
2024-02-11T12:33:47.606Z,98204.25
2024-02-11T12:36:15.655Z,98200.19
2024-02-11T12:38:48.127Z,98164.09
2024-02-11T12:41:19.116Z,98175.16
2024-02-11T12:43:47.861Z,98201.38
2024-02-11T12:46:15.172Z,98197.16
2024-02-11T12:48:44.482Z,98150.25
2024-02-11T12:51:13.070Z,98201.94
2024-02-11T12:53:45.060Z,98124.03
2024-02-11T12:56:19.430Z,98168.59
2024-02-11T12:58:52.546Z,98173.47
2024-02-11T13:01:28.332Z,98136.66
2024-02-11T13:04:00.752Z,98196.81
2024-02-11T13:06:27.983Z,98188.06
2024-02-11T13:09:00.736Z,98173.81
2024-02-11T13:11:35.108Z,98189.56
2024-02-11T13:14:05.091Z,98180.59
2024-02-11T13:16:33.843Z,98179.06
2024-02-11T13:19:07.334Z,98181.06
2024-02-11T13:21:34.730Z,98146.16
2024-02-11T13:24:02.832Z,98186.19
2024-02-11T13:26:32.518Z,98138.03
2024-02-11T13:29:06.159Z,98171.16
2024-02-11T13:31:36.563Z,98143.91
2024-02-11T13:34:04.638Z,98168.66
2024-02-11T13:36:32.496Z,98162.03
2024-02-11T13:38:59.638Z,98172.06
2024-02-11T13:41:28.962Z,98177.59
2024-02-11T13:43:58.662Z,98079.81
2024-02-11T13:46:26.059Z,98136.91
2024-02-11T13:48:59.088Z,98140.28
2024-02-11T13:51:26.462Z,98169.00
2024-02-11T13:53:53.448Z,98175.63
2024-02-11T13:56:25.648Z,98162.91
2024-02-11T13:58:52.982Z,98143.13
2024-02-11T14:01:20.476Z,98156.13
2024-02-11T14:03:48.174Z,98150.47
2024-02-11T14:06:16.733Z,98162.06
2024-02-11T14:08:49.446Z,98149.00
2024-02-11T14:11:17.560Z,98119.06
2024-02-11T14:13:44.888Z,98192.66
2024-02-11T14:16:12.224Z,98176.09
2024-02-11T14:18:42.430Z,98158.84
2024-02-11T14:21:10.373Z,98078.50
2024-02-11T14:23:39.688Z,98023.78
2024-02-11T14:26:10.745Z,98162.19
2024-02-11T14:28:38.369Z,98112.44
2024-02-11T14:31:09.031Z,98155.34
2024-02-11T14:33:36.913Z,98195.56
2024-02-11T14:36:04.620Z,98136.31
2024-02-11T14:38:32.123Z,98160.25
2024-02-11T14:41:00.965Z,98108.91
2024-02-11T14:43:28.117Z,98088.53
2024-02-11T14:46:01.904Z,98100.53
2024-02-11T14:48:29.420Z,98128.84
2024-02-11T14:50:58.991Z,98145.19
2024-02-11T14:53:26.577Z,98103.09
2024-02-11T14:56:04.427Z,98153.75
2024-02-11T14:58:37.309Z,98114.69
2024-02-11T15:01:07.541Z,98095.00
2024-02-11T15:03:41.759Z,98148.66
2024-02-11T15:06:13.799Z,98147.81
2024-02-11T15:08:46.849Z,98114.53
2024-02-11T15:11:16.985Z,98142.03
2024-02-11T15:13:45.217Z,98157.16
2024-02-11T15:16:12.211Z,98129.91
2024-02-11T15:18:41.918Z,98124.84
2024-02-11T15:21:15.079Z,98148.75
2024-02-11T15:23:44.185Z,98090.22
2024-02-11T15:26:11.462Z,98127.78
2024-02-11T15:28:38.473Z,98155.19
2024-02-11T15:31:10.452Z,98117.63
2024-02-11T15:33:43.362Z,98140.59
2024-02-11T15:36:11.317Z,98106.63
2024-02-11T15:38:40.838Z,98142.09
2024-02-11T15:41:12.203Z,98110.78
2024-02-11T15:43:39.493Z,98089.25
2024-02-11T15:46:06.600Z,98151.31
2024-02-11T15:48:37.400Z,98157.44
2024-02-11T15:51:05.262Z,98163.78
2024-02-11T15:53:37.341Z,98155.28
2024-02-11T15:56:05.879Z,98145.25
2024-02-11T15:58:33.184Z,98100.16
2024-02-11T16:01:07.019Z,98050.31
2024-02-11T16:03:34.178Z,98112.94
2024-02-11T16:06:01.330Z,98036.22
2024-02-11T16:08:29.533Z,98096.31
2024-02-11T16:10:59.644Z,98156.50
2024-02-11T16:13:31.112Z,98153.03
2024-02-11T16:16:02.514Z,98114.84
2024-02-11T16:18:32.997Z,98147.06
2024-02-11T16:21:02.678Z,98148.25
2024-02-11T16:23:41.784Z,98149.16
2024-02-11T16:26:17.361Z,98121.84
2024-02-11T16:28:45.465Z,98140.75
2024-02-11T16:31:15.448Z,98167.84
2024-02-11T16:33:42.600Z,98150.38
2024-02-11T16:36:10.328Z,98168.81
2024-02-11T16:38:38.583Z,98120.56
2024-02-11T16:41:09.404Z,98107.16
2024-02-11T16:43:55.028Z,98150.97
2024-02-11T16:46:31.000Z,98156.78
2024-02-11T16:49:02.312Z,98164.19
2024-02-11T16:51:32.198Z,98087.91
2024-02-11T16:54:05.795Z,98115.53
2024-02-11T16:56:35.888Z,98160.84
2024-02-11T16:59:06.096Z,98141.47
2024-02-11T17:01:36.912Z,98106.88
2024-02-11T17:04:07.411Z,98151.09
2024-02-11T17:06:37.345Z,98156.81
2024-02-11T17:09:06.480Z,98127.53
2024-02-11T17:11:37.802Z,98155.06
2024-02-11T17:14:15.520Z,98145.66
2024-02-11T17:16:45.142Z,98139.94
2024-02-11T17:19:17.974Z,98145.81
2024-02-11T17:21:46.430Z,98143.41
2024-02-11T17:24:16.414Z,98125.78
2024-02-11T17:26:43.803Z,98141.66
2024-02-11T17:29:13.305Z,98125.38
2024-02-11T17:31:44.052Z,98140.09
2024-02-11T17:34:15.101Z,98147.31
2024-02-11T17:36:43.472Z,98175.16
2024-02-11T17:39:12.977Z,98137.69
2024-02-11T17:41:44.883Z,98158.84
2024-02-11T17:44:13.947Z,98146.59
2024-02-11T17:46:44.270Z,98152.13
2024-02-11T17:49:18.283Z,98125.97
2024-02-11T17:51:48.135Z,98140.06
2024-02-11T17:54:16.338Z,98137.72
2024-02-11T17:56:46.906Z,98026.00
2024-02-11T17:59:15.441Z,98160.91
2024-02-11T18:01:45.401Z,98160.16
2024-02-11T18:04:13.114Z,98104.91
2024-02-11T18:06:46.574Z,98135.84
2024-02-11T18:09:14.222Z,98156.78
2024-02-11T18:11:44.057Z,98153.53
2024-02-11T18:14:18.954Z,98158.91
2024-02-11T18:16:46.348Z,98152.00
2024-02-11T18:19:14.007Z,98157.09
2024-02-11T18:21:41.255Z,98158.00
2024-02-11T18:24:10.899Z,98146.72
2024-02-11T18:26:41.810Z,98109.50
2024-02-11T18:29:09.026Z,98113.34
2024-02-11T18:31:35.949Z,98149.09
2024-02-11T18:34:03.166Z,98140.66
2024-02-11T18:36:30.202Z,98145.78
2024-02-11T18:38:57.270Z,98139.97
2024-02-11T18:41:26.866Z,98131.38
2024-02-11T18:43:54.073Z,98127.47
2024-02-11T18:46:21.788Z,98026.06
2024-02-11T18:48:49.555Z,98128.31
2024-02-11T18:51:16.619Z,98138.25
2024-02-11T18:53:43.654Z,98120.66
2024-02-11T18:56:10.682Z,98125.06
2024-02-11T18:58:40.882Z,98149.41
2024-02-11T19:01:12.195Z,98140.88
2024-02-11T19:03:44.483Z,98156.31
2024-02-11T19:06:11.745Z,98127.91
2024-02-11T19:08:42.625Z,98150.25
2024-02-11T19:11:13.745Z,98134.25
2024-02-11T19:13:43.544Z,98127.28
2024-02-11T19:16:10.577Z,98151.53
2024-02-11T19:18:42.858Z,98137.88
2024-02-11T19:21:11.039Z,98159.25
2024-02-11T19:23:38.587Z,98159.03
2024-02-11T19:26:05.772Z,98126.88
2024-02-11T19:28:33.840Z,98145.34
2024-02-11T19:31:01.726Z,98142.41
2024-02-11T19:33:29.429Z,98193.03
2024-02-11T19:35:57.603Z,98157.91
2024-02-11T19:38:27.075Z,98158.34
2024-02-11T19:40:55.781Z,98158.19
2024-02-11T19:43:23.063Z,98116.13
2024-02-11T19:45:51.416Z,98121.84
2024-02-11T19:48:18.490Z,98051.22
2024-02-11T19:50:53.141Z,98132.28
2024-02-11T19:53:34.110Z,98134.69
2024-02-11T19:56:09.154Z,98113.56
2024-02-11T19:58:42.577Z,98069.25
2024-02-11T20:01:10.835Z,98136.75
2024-02-11T20:03:39.039Z,98123.25
2024-02-11T20:06:09.619Z,98121.84
2024-02-11T20:08:37.829Z,98107.06
2024-02-11T20:11:10.277Z,98099.09
2024-02-11T20:13:37.720Z,98100.59
2024-02-11T20:16:05.141Z,98114.44
2024-02-11T20:18:32.379Z,98106.91
2024-02-11T20:20:59.975Z,98108.16
2024-02-11T20:23:27.548Z,98045.03
2024-02-11T20:25:55.851Z,98106.34
2024-02-11T20:28:26.136Z,98126.78
2024-02-11T20:30:54.845Z,98108.84
2024-02-11T20:33:22.664Z,98051.69
2024-02-11T20:35:51.943Z,98056.16
2024-02-11T20:38:20.472Z,98095.84
2024-02-11T20:40:50.425Z,98081.59
2024-02-11T20:43:17.493Z,97992.91
2024-02-11T20:45:57.721Z,98118.03
2024-02-11T20:48:27.765Z,98132.56
2024-02-11T20:50:56.559Z,98039.28
2024-02-11T20:53:24.759Z,98122.56
2024-02-11T20:55:55.213Z,98078.59
2024-02-11T20:58:22.191Z,98131.22
2024-02-11T21:00:51.910Z,98101.94
2024-02-11T21:03:27.830Z,98094.69
2024-02-11T21:05:55.711Z,98087.22
2024-02-11T21:08:22.772Z,98110.81
2024-02-11T21:10:49.928Z,98124.09
2024-02-11T21:13:18.328Z,98105.72
2024-02-11T21:15:45.550Z,98103.16
2024-02-11T21:18:13.083Z,98098.44
2024-02-11T21:20:40.300Z,97971.59
2024-02-11T21:23:11.914Z,98110.53
2024-02-11T21:25:41.116Z,98127.09
2024-02-11T21:28:10.675Z,98099.81
2024-02-11T21:30:37.879Z,98116.03
2024-02-11T21:33:07.930Z,98110.34
2024-02-11T21:35:35.512Z,98100.81
2024-02-11T21:38:05.143Z,98043.28
2024-02-11T21:40:39.748Z,98067.47
2024-02-11T21:43:14.729Z,98119.00
2024-02-11T21:45:42.522Z,98098.81
2024-02-11T21:48:09.480Z,98103.13
2024-02-11T21:50:39.713Z,98125.94
2024-02-11T21:53:10.989Z,98112.31
2024-02-11T21:55:38.876Z,98108.09
2024-02-11T21:58:05.828Z,98054.97
2024-02-11T22:00:32.939Z,98112.84
2024-02-11T22:03:00.366Z,98110.38
2024-02-11T22:05:27.623Z,98109.41
2024-02-11T22:07:57.602Z,98096.16
2024-02-11T22:10:24.722Z,98112.03
2024-02-11T22:12:51.743Z,98114.44
2024-02-11T22:15:22.206Z,98105.19
2024-02-11T22:17:53.808Z,98093.94
2024-02-11T22:20:21.375Z,98096.50
2024-02-11T22:22:49.144Z,98119.84
2024-02-11T22:25:16.216Z,98094.38
2024-02-11T22:27:43.284Z,97944.22
2024-02-11T22:30:13.721Z,98089.41
2024-02-11T22:32:41.121Z,98094.22
2024-02-11T22:35:10.578Z,98024.75
2024-02-11T22:37:39.860Z,98088.75
2024-02-11T22:40:07.755Z,98098.59
2024-02-11T22:42:35.502Z,98096.94
2024-02-11T22:45:03.572Z,98039.06
2024-02-11T22:47:31.212Z,98080.06
2024-02-11T22:49:58.560Z,98065.91
2024-02-11T22:52:25.572Z,98046.22
2024-02-11T22:54:52.502Z,98052.53
2024-02-11T22:57:19.828Z,98079.66
2024-02-11T22:59:47.396Z,98068.09
2024-02-11T23:02:18.564Z,98054.84
2024-02-11T23:04:48.968Z,98048.66
2024-02-11T23:07:16.784Z,98070.31
2024-02-11T23:09:43.851Z,98082.81
2024-02-11T23:12:11.660Z,98079.50
2024-02-11T23:14:38.651Z,98070.81
2024-02-11T23:17:06.341Z,98073.38
2024-02-11T23:19:33.372Z,98076.03
2024-02-11T23:22:01.365Z,98076.19
2024-02-11T23:24:31.482Z,98082.97
2024-02-11T23:27:07.210Z,98076.28
2024-02-11T23:29:37.550Z,98073.78
2024-02-11T23:32:08.574Z,97942.84
2024-02-11T23:34:36.864Z,97911.91
2024-02-11T23:37:10.745Z,98075.03
2024-02-11T23:39:37.992Z,98065.91
2024-02-11T23:42:08.731Z,98028.56
2024-02-11T23:44:38.961Z,98059.63
2024-02-11T23:47:07.175Z,98044.63
2024-02-11T23:49:37.558Z,97948.91
2024-02-11T23:52:06.506Z,98059.06
2024-02-11T23:54:40.112Z,98065.75
2024-02-11T23:57:08.457Z,98019.56
2024-02-11T23:59:36.936Z,97928.44
